CheckWX is a tool to help pilots better visualize weather data.  It is not intended as a substitute for an official pre-flight weather briefing.

08:29:21 UTC

KRQE METAR
Window Rock Airport
Window Rock, Arizona, USA
Current

26 mins ago

KRQE 220803Z AUTO 12003KT 1/2SM SN FZFG VV014 M03/M04 A2966 RMK AO2 P0002 T10331044
Observed
Feb-22 @ 08:03 UTC
Wind
  • 120° at 3 KTS
Visibility
1/2 SM
Flight Rules
LIFR
Conditions
Snow, Freezing Fog
Cloud Levels
  • Vertical visibility at 1,400' AGL
Temperature
-3°C / 27°F
Dewpoint
-4°C / 25°F
Humidity
93%
Altimeter
29.66" Hg
Pressure
1004.42 hPa
Current Rain
0.02"
Previous

36 mins ago

KRQE 220753Z AUTO 11004KT 1 1/4SM -SN BR OVC019 M03/M04 A2966 RMK AO2 SLP029 P0003 T10331044
Observed
Feb-22 @ 07:53 UTC
Wind
  • 110° at 4 KTS
Visibility
1 1/4 SM
Flight Rules
IFR
Conditions
Light Snow, Mist
Cloud Levels
  • Overcast at 1,900' AGL
Temperature
-3°C / 27°F
Dewpoint
-4°C / 25°F
Humidity
93%
Altimeter
29.66" Hg
Pressure
1002.9 hPa
Current Rain
0.03"
Previous

46 mins ago

KRQE 220743Z AUTO 11003KT 3SM -SN BR OVC021 M03/M04 A2966 RMK AO2 P0003 T10331044
Observed
Feb-22 @ 07:43 UTC
Wind
  • 110° at 3 KTS
Visibility
3 SM
Flight Rules
MVFR
Conditions
Light Snow, Mist
Cloud Levels
  • Overcast at 2,100' AGL
Temperature
-3°C / 27°F
Dewpoint
-4°C / 25°F
Humidity
93%
Altimeter
29.66" Hg
Pressure
1004.42 hPa
Current Rain
0.03"